Terminal Aerodrome Forecast
Issued by NWS Jacksonville, FL

Home | Current Version | Previous Version | Text Only | Print | Product List | Glossary On
Versions: 1 2 3 4 5 6 7 8 9 10 11 12 13
000
FTUS42 KJAX 292343
TAFGNV
TAF
KGNV 292343Z 3000/3024 25007KT P6SM VCSH FEW040 SCT090
     FM300100 27003KT P6SM FEW090 SCT250
     FM301400 29007KT P6SM FEW040 SCT250=

USA.gov is the U.S. government's official web portal to all federal, state and local government web resources and services.